Time;durP1;ratioP1;P1;durP2;ratioP2;P2;SDS_P1;SDS_P2;PMS_P1;PMS_P2;Temp;Humidity;BMP_temperature;BMP_pressure;BME280_temperature;BME280_humidity;BME280_pressure;Samples;Min_cycle;Max_cycle;Signal;HPM_P1;HPM_P2
2023/07/09 00:01:48;;;;;;;5.35;5.00;;;;;;;-144.30;52.08;84247.59;5069509;28;20633;-50
2023/07/09 00:04:15;;;;;;;6.13;4.88;;;;;;;-144.30;52.63;84166.13;5069006;28;20206;-50
2023/07/09 00:06:43;;;;;;;5.55;4.78;;;;;;;-144.30;52.94;84303.25;5068853;28;20214;-50
2023/07/09 00:09:15;;;;;;;5.43;4.93;;;;;;;-144.30;53.27;84251.56;5068878;28;20697;-50
2023/07/09 00:11:42;;;;;;;5.90;4.53;;;;;;;-144.30;53.54;84311.19;5069167;28;20200;-51
2023/07/09 00:14:12;;;;;;;5.18;4.78;;;;;;;-144.30;53.68;84827.94;5069093;28;20253;-52
2023/07/09 00:16:40;;;;;;;5.63;5.15;;;;;;;-144.30;53.59;84271.44;5069155;28;20843;-51
2023/07/09 00:19:13;;;;;;;6.32;4.63;;;;;;;-144.30;53.70;84346.97;5068877;28;20200;-49
2023/07/09 00:21:40;;;;;;;8.45;4.63;;;;;;;-144.30;53.62;84354.91;5068876;28;20228;-51
2023/07/09 00:24:10;;;;;;;5.95;4.40;;;;;;;-144.30;53.71;84329.06;5068713;28;20196;-54
2023/07/09 00:26:40;;;;;;;8.73;6.78;;;;;;;-144.30;53.54;84331.06;5069188;28;20192;-51
2023/07/09 00:29:11;;;;;;;5.97;4.97;;;;;;;-144.30;53.53;84341.00;5068915;28;20270;-51
2023/07/09 00:31:40;;;;;;;8.07;7.18;;;;;;;-144.30;53.68;84339.00;5069044;28;20642;-49
2023/07/09 00:34:07;;;;;;;5.07;4.72;;;;;;;-144.30;53.71;84410.56;5068809;28;20196;-50
2023/07/09 00:36:35;;;;;;;9.95;8.90;;;;;;;-144.30;54.13;84333.06;5068700;28;20238;-50
2023/07/09 00:39:04;;;;;;;4.60;4.30;;;;;;;-144.30;53.97;84362.84;5069050;28;20196;-49
2023/07/09 00:41:34;;;;;;;9.45;5.13;;;;;;;-144.30;54.16;84396.66;5069016;28;20224;-50
2023/07/09 00:44:24;;;;;;;8.05;6.28;;;;;;;-144.30;53.92;84376.78;5068918;28;20192;-50
2023/07/09 00:47:24;;;;;;;6.20;5.63;;;;;;;-144.30;53.58;84422.47;5068695;28;20231;-49
2023/07/09 00:50:01;;;;;;;7.30;6.80;;;;;;;-144.30;53.73;84388.69;5068670;28;20268;-49
2023/07/09 00:52:35;;;;;;;4.45;4.10;;;;;;;-144.30;53.38;84434.41;5068709;28;20282;-50
2023/07/09 00:55:07;;;;;;;4.88;4.22;;;;;;;-144.30;53.12;84406.59;5068570;28;20256;-49
2023/07/09 00:57:38;;;;;;;4.55;4.18;;;;;;;-144.30;52.83;84416.50;5069025;28;20575;-49
2023/07/09 01:00:13;;;;;;;5.15;4.60;;;;;;;-144.30;53.02;84412.53;5068572;28;20220;-51
2023/07/09 01:02:45;;;;;;;5.00;4.45;;;;;;;-144.30;52.72;84374.78;5068748;28;20199;-50
2023/07/09 01:05:13;;;;;;;6.75;4.88;;;;;;;-144.30;52.97;84398.63;5068381;28;20645;-51
2023/07/09 01:07:41;;;;;;;4.88;4.47;;;;;;;-144.30;52.36;84388.69;5068324;28;20200;-49
2023/07/09 01:10:08;;;;;;;5.93;5.32;;;;;;;-144.30;52.22;84394.66;5068298;28;20211;-51
2023/07/09 01:12:35;;;;;;;6.47;4.50;;;;;;;-144.30;52.24;84380.75;5068783;28;20210;-51
2023/07/09 01:15:03;;;;;;;4.95;4.53;;;;;;;-144.30;52.20;84398.63;5068315;28;20195;-48
2023/07/09 01:17:31;;;;;;;4.55;4.25;;;;;;;-144.30;52.17;84410.56;5068561;28;20702;-50
2023/07/09 01:19:58;;;;;;;4.32;3.90;;;;;;;-144.30;51.88;84418.50;5071806;28;20200;-50
2023/07/09 01:22:29;;;;;;;6.10;4.32;;;;;;;-144.30;52.07;84416.50;5072061;28;20199;-50
2023/07/09 01:25:01;;;;;;;4.88;4.38;;;;;;;-144.30;52.25;84382.72;5072021;28;20203;-50
2023/07/09 01:27:33;;;;;;;8.65;4.35;;;;;;;-144.30;52.15;84360.88;5071983;28;20294;-48
2023/07/09 01:30:01;;;;;;;5.75;4.32;;;;;;;-144.30;52.39;84414.53;5071856;28;20660;-50
2023/07/09 01:32:28;;;;;;;5.55;4.30;;;;;;;-144.30;52.31;84450.31;5071940;28;20203;-50
2023/07/09 01:35:04;;;;;;;4.70;4.40;;;;;;;-144.30;52.64;84410.56;5071576;28;20227;-50
2023/07/09 01:37:34;;;;;;;4.80;4.40;;;;;;;-144.30;52.21;84434.41;5071740;28;20207;-49
2023/07/09 01:40:04;;;;;;;5.22;3.92;;;;;;;-144.30;52.17;84428.44;5071572;28;20192;-49
2023/07/09 01:42:32;;;;;;;6.68;4.28;;;;;;;-144.30;51.95;84442.34;5071727;28;20664;-50
2023/07/09 01:44:59;;;;;;;4.32;3.97;;;;;;;-144.30;51.96;84438.38;5071410;28;20584;-50
2023/07/09 01:47:26;;;;;;;4.55;4.25;;;;;;;-144.30;51.88;84442.34;5071574;28;20204;-49
2023/07/09 01:49:56;;;;;;;4.70;4.28;;;;;;;-144.30;51.88;84466.19;5071831;28;20598;-50
2023/07/09 01:52:27;;;;;;;4.57;4.28;;;;;;;-144.30;51.95;84446.31;5071968;28;20195;-49
2023/07/09 01:54:55;;;;;;;4.65;3.97;;;;;;;-144.30;51.72;84464.22;5071473;28;20737;-49
2023/07/09 01:57:24;;;;;;;5.72;4.30;;;;;;;-144.30;51.77;84468.19;5071455;28;20346;-49
2023/07/09 01:59:52;;;;;;;6.47;4.18;;;;;;;-144.30;51.54;84446.31;5071461;28;20196;-51
2023/07/09 02:02:20;;;;;;;4.90;4.05;;;;;;;-144.30;51.70;84406.59;5071097;28;20259;-51
2023/07/09 02:04:51;;;;;;;6.70;4.15;;;;;;;-144.30;51.60;84402.59;5071476;28;20192;-51
2023/07/09 02:07:19;;;;;;;4.70;4.20;;;;;;;-144.30;51.50;84430.44;5071255;28;20218;-51
2023/07/09 02:09:46;;;;;;;7.00;4.10;;;;;;;-144.30;51.42;84454.28;5071353;28;20200;-50
2023/07/09 02:12:16;;;;;;;4.55;4.13;;;;;;;-144.30;51.43;84446.31;5070930;28;20686;-49
2023/07/09 02:14:44;;;;;;;5.65;3.85;;;;;;;-144.30;51.69;84424.47;5071404;28;20202;-50
2023/07/09 02:17:12;;;;;;;4.75;4.30;;;;;;;-144.30;51.63;84464.22;5070856;28;20195;-50
2023/07/09 02:19:39;;;;;;;4.40;3.90;;;;;;;-144.30;51.40;84404.59;5071283;28;20203;-51
2023/07/09 02:22:07;;;;;;;4.28;3.97;;;;;;;-144.30;51.43;84442.34;5070920;28;20310;-49
2023/07/09 02:24:34;;;;;;;3.92;3.72;;;;;;;-144.30;51.63;84478.13;5071081;28;20204;-50
2023/07/09 02:27:04;;;;;;;5.13;4.10;;;;;;;-144.30;51.06;84472.16;5070812;28;20591;-49
2023/07/09 02:29:33;;;;;;;4.78;3.92;;;;;;;-144.30;51.18;84501.97;5071160;28;20210;-50
2023/07/09 02:32:01;;;;;;;6.90;4.00;;;;;;;-144.30;50.87;84426.47;5070791;28;20191;-50
2023/07/09 02:34:30;;;;;;;7.00;4.10;;;;;;;-144.30;50.84;84442.34;5070773;28;20196;-50
2023/07/09 02:36:58;;;;;;;4.70;4.00;;;;;;;-144.30;51.05;84408.56;5070655;28;20329;-49
2023/07/09 02:39:26;;;;;;;7.22;3.85;;;;;;;-144.30;50.90;84478.13;5070777;28;20583;-49
2023/07/09 02:41:53;;;;;;;5.93;3.70;;;;;;;-144.30;51.01;84581.47;5070758;28;20224;-51
2023/07/09 02:44:20;;;;;;;3.63;3.42;;;;;;;-144.30;50.81;84406.59;5070704;28;20249;-50
2023/07/09 02:46:49;;;;;;;5.20;3.92;;;;;;;-144.30;50.84;84466.19;5070811;28;20275;-50
2023/07/09 02:49:16;;;;;;;4.80;4.18;;;;;;;-144.30;50.69;84478.13;5069802;28;20202;-50
2023/07/09 02:51:43;;;;;;;6.05;3.92;;;;;;;-144.30;50.73;84494.03;5070578;28;20580;-50
2023/07/09 02:54:10;;;;;;;7.97;3.80;;;;;;;-144.30;50.99;84484.09;5070459;28;20202;-49
2023/07/09 02:56:37;;;;;;;6.10;3.70;;;;;;;-144.30;51.01;84521.84;5070531;28;20355;-47
2023/07/09 02:59:05;;;;;;;6.35;4.28;;;;;;;-144.30;50.79;84513.91;5067743;28;20235;-48
2023/07/09 03:01:34;;;;;;;5.15;4.38;;;;;;;-144.30;50.80;84490.06;5067078;28;20224;-48
2023/07/09 03:04:03;;;;;;;4.20;3.80;;;;;;;-144.30;50.80;84450.31;5069983;28;20291;-50
2023/07/09 03:06:32;;;;;;;3.97;3.55;;;;;;;-144.30;50.67;84454.28;5070137;28;20204;-50
2023/07/09 03:09:30;;;;;;;4.53;4.07;;;;;;;-144.30;50.84;84521.84;5067402;28;20204;-50
2023/07/09 03:12:21;;;;;;;4.20;3.67;;;;;;;-144.30;50.77;84513.91;5068727;28;20196;-50
2023/07/09 03:14:49;;;;;;;5.13;4.30;;;;;;;-144.30;50.68;84470.19;5067049;28;20282;-50
2023/07/09 03:17:16;;;;;;;5.00;4.60;;;;;;;-144.30;50.76;84509.94;5067206;28;20585;-50
2023/07/09 03:19:44;;;;;;;4.70;4.30;;;;;;;-144.30;50.81;84498.00;5070019;28;20204;-49
2023/07/09 03:22:11;;;;;;;6.18;4.30;;;;;;;-144.30;50.79;84468.19;5069924;28;20719;-49
2023/07/09 03:24:38;;;;;;;4.53;4.18;;;;;;;-144.30;50.39;84478.13;5069924;28;20196;-50
2023/07/09 03:27:06;;;;;;;4.13;3.72;;;;;;;-144.30;50.40;84488.06;5069691;28;20572;-50
2023/07/09 03:29:34;;;;;;;4.35;3.95;;;;;;;-144.30;50.25;84476.13;5069668;28;20206;-51
2023/07/09 03:32:01;;;;;;;4.13;3.90;;;;;;;-144.30;50.21;84460.25;5068994;28;20288;-50
2023/07/09 03:34:27;;;;;;;5.25;3.83;;;;;;;-144.30;50.22;84456.25;5068966;28;20207;-48
2023/07/09 03:36:56;;;;;;;7.00;4.50;;;;;;;-144.30;49.73;84434.41;5069461;28;20319;-50
2023/07/09 03:39:23;;;;;;;3.80;3.60;;;;;;;-144.30;49.46;84442.34;5066466;28;20287;-51
2023/07/09 03:41:49;;;;;;;5.43;3.72;;;;;;;-144.30;49.41;84394.66;5065071;28;20234;-50
2023/07/09 03:44:16;;;;;;;5.30;3.75;;;;;;;-144.30;49.13;84394.66;5069305;28;20202;-50
2023/07/09 03:46:43;;;;;;;5.10;3.88;;;;;;;-144.30;48.99;84358.88;5062187;28;20291;-50
2023/07/09 03:49:16;;;;;;;4.45;3.75;;;;;;;-144.30;48.69;84335.03;5049293;28;20201;-50
2023/07/09 03:51:43;;;;;;;11.13;4.30;;;;;;;-144.30;48.08;84339.00;5062336;28;20192;-51
2023/07/09 03:54:11;;;;;;;6.63;4.18;;;;;;;-144.30;47.63;84267.47;5068187;28;20206;-50
2023/07/09 03:56:38;;;;;;;5.72;4.00;;;;;;;-144.30;46.93;84142.28;5069107;28;20200;-48
2023/07/09 03:59:05;;;;;;;3.88;3.55;;;;;;;-144.30;44.06;84009.13;5068629;28;20200;-50
2023/07/09 04:01:32;;;;;;;3.85;3.42;;;;;;;-144.30;40.89;83728.97;5068699;28;20224;-50
2023/07/09 04:03:59;;;;;;;6.40;4.13;;;;;;;-144.30;37.78;83428.94;5068962;28;20674;-51
2023/07/09 04:06:26;;;;;;;3.80;3.60;;;;;;;-144.30;36.02;83198.47;5068784;28;20279;-49
2023/07/09 04:08:53;;;;;;;3.53;3.33;;;;;;;-144.30;34.39;82920.34;5068542;28;20208;-50
2023/07/09 04:11:21;;;;;;;3.70;3.17;;;;;;;-144.30;33.32;82773.34;5068698;28;20190;-52
2023/07/09 04:13:48;;;;;;;3.72;3.40;;;;;;;-144.30;32.17;82602.53;5069200;28;20261;-51
2023/07/09 04:16:15;;;;;;;7.95;3.85;;;;;;;-144.30;31.50;82544.91;5069042;28;20200;-51
2023/07/09 04:18:42;;;;;;;6.53;4.07;;;;;;;-144.30;31.26;82429.72;5068941;28;20207;-54
2023/07/09 04:21:09;;;;;;;3.70;3.40;;;;;;;-144.30;30.59;82292.66;5068886;28;20242;-50
2023/07/09 04:23:36;;;;;;;5.93;3.80;;;;;;;-144.30;29.89;82026.53;5069262;28;20282;-51
2023/07/09 04:26:03;;;;;;;4.18;3.30;;;;;;;-144.30;29.01;81790.22;5068710;28;20202;-51
2023/07/09 04:28:32;;;;;;;3.85;3.40;;;;;;;-144.30;28.23;81498.31;5062428;28;20203;-51
2023/07/09 04:30:59;;;;;;;5.20;4.03;;;;;;;-144.30;27.44;81285.84;5063809;28;20703;-50
2023/07/09 04:33:26;;;;;;;4.13;3.83;;;;;;;-144.30;26.90;81085.31;5068605;28;20207;-51
2023/07/09 04:35:53;;;;;;;3.50;3.20;;;;;;;-144.30;27.08;81281.88;5068842;28;20230;-51
2023/07/09 04:38:20;;;;;;;4.10;3.35;;;;;;;-144.30;26.51;81218.31;5068547;28;20204;-50
2023/07/09 04:40:48;;;;;;;3.72;3.42;;;;;;;-144.30;26.68;81160.75;5069128;28;20622;-51
2023/07/09 04:43:15;;;;;;;3.88;3.47;;;;;;;-144.30;26.47;81081.34;5068533;28;20249;-51
2023/07/09 04:45:43;;;;;;;5.00;3.40;;;;;;;-144.30;26.22;80920.50;5069046;28;20214;-52
2023/07/09 04:48:10;;;;;;;4.30;3.97;;;;;;;-144.30;25.43;80575.06;5068385;28;20205;-51
2023/07/09 04:50:37;;;;;;;3.83;3.40;;;;;;;-144.30;25.17;80519.50;5068517;28;20199;-51
2023/07/09 04:53:04;;;;;;;5.88;3.67;;;;;;;-144.30;25.13;80533.38;5071423;28;20652;-51
2023/07/09 04:55:31;;;;;;;5.80;3.43;;;;;;;-144.30;25.18;80521.47;5072228;28;20442;-51
2023/07/09 04:57:58;;;;;;;3.53;2.97;;;;;;;-144.30;24.96;80346.78;5072132;28;20268;-51
2023/07/09 05:00:25;;;;;;;4.55;3.78;;;;;;;-144.30;24.48;80148.28;5072430;28;20286;-52
2023/07/09 05:02:54;;;;;;;4.70;3.10;;;;;;;-144.30;24.13;80146.31;5072369;28;20314;-51
2023/07/09 05:05:20;;;;;;;3.47;3.03;;;;;;;-144.30;24.66;80338.84;5072159;28;20245;-52
2023/07/09 05:07:48;;;;;;;3.55;3.35;;;;;;;-144.30;24.34;80269.38;5072597;28;20195;-52
2023/07/09 05:10:14;;;;;;;6.00;3.40;;;;;;;-144.30;24.05;79985.53;5072146;28;20202;-52
2023/07/09 05:12:50;;;;;;;4.10;3.80;;;;;;;-144.30;23.65;79739.44;5071957;28;20188;-51
2023/07/09 05:15:18;;;;;;;3.67;3.35;;;;;;;-144.30;24.11;79971.63;5072405;28;20204;-50
2023/07/09 05:17:45;;;;;;;3.72;3.42;;;;;;;-144.30;23.90;79759.28;5070971;28;20282;-52
2023/07/09 05:20:14;;;;;;;4.40;4.00;;;;;;;-144.30;23.96;79949.81;5065628;28;20207;-52
2023/07/09 05:22:41;;;;;;;5.70;3.20;;;;;;;-144.30;24.23;80281.28;5052060;28;20306;-51
2023/07/09 05:25:09;;;;;;;7.50;3.85;;;;;;;-144.30;24.37;80120.50;5052657;28;20196;-51
2023/07/09 05:27:35;;;;;;;6.20;3.47;;;;;;;-144.30;24.33;80128.44;5052301;28;20459;-51
2023/07/09 05:30:02;;;;;;;5.95;3.55;;;;;;;-144.30;24.27;80273.34;5051908;28;20939;-50
2023/07/09 05:32:29;;;;;;;3.20;3.00;;;;;;;-144.30;24.33;80203.88;5052525;28;20288;-50
2023/07/09 05:34:56;;;;;;;5.63;3.60;;;;;;;-144.30;24.33;80160.19;5052342;28;20235;-51
2023/07/09 05:37:24;;;;;;;3.40;3.20;;;;;;;-144.30;24.12;80037.13;5052422;28;20611;-51
2023/07/09 05:39:51;;;;;;;3.55;3.25;;;;;;;-144.30;23.48;79906.13;5052727;28;20622;-52
2023/07/09 05:42:18;;;;;;;8.30;3.53;;;;;;;-144.30;23.77;80066.91;5051956;28;20575;-50
2023/07/09 05:44:45;;;;;;;3.70;3.40;;;;;;;-144.30;24.11;80154.25;5052397;28;20196;-50
2023/07/09 05:47:12;;;;;;;3.92;3.63;;;;;;;-144.30;24.33;80311.06;5068724;28;20286;-52
2023/07/09 05:49:39;;;;;;;4.85;3.70;;;;;;;-144.30;24.57;80295.19;5069755;28;20234;-52
2023/07/09 05:52:07;;;;;;;3.60;3.30;;;;;;;-144.30;24.53;80191.97;5070457;28;20192;-51
2023/07/09 05:54:35;;;;;;;4.65;3.05;;;;;;;-144.30;24.33;80084.78;5071749;28;20273;-51
2023/07/09 05:57:02;;;;;;;3.78;3.45;;;;;;;-144.30;23.98;80110.56;5067437;28;20581;-51
2023/07/09 05:59:29;;;;;;;3.60;3.40;;;;;;;-144.30;24.03;80203.88;5071409;28;20286;-52
2023/07/09 06:01:56;;;;;;;3.63;3.17;;;;;;;-144.30;24.14;80307.09;5071571;28;20215;-50
2023/07/09 06:04:25;;;;;;;4.00;3.30;;;;;;;-144.30;24.47;80545.28;5071065;28;20203;-50
2023/07/09 06:06:51;;;;;;;3.10;2.90;;;;;;;-144.30;24.40;80531.41;5072601;28;20672;-51
2023/07/09 06:09:19;;;;;;;7.85;3.75;;;;;;;-144.30;24.42;80463.91;5071957;28;20206;-50
2023/07/09 06:11:47;;;;;;;7.05;3.70;;;;;;;-144.30;24.49;80513.53;5071950;28;20574;-51
2023/07/09 06:14:14;;;;;;;3.35;3.10;;;;;;;-144.30;24.54;80561.19;5071568;28;20267;-51
2023/07/09 06:16:41;;;;;;;5.10;3.05;;;;;;;-144.30;24.91;80771.63;5072065;28;20722;-51
2023/07/09 06:19:08;;;;;;;3.85;3.55;;;;;;;-144.30;25.10;80771.63;5071818;28;20195;-50
2023/07/09 06:21:34;;;;;;;5.55;3.38;;;;;;;-144.30;24.96;80785.50;5071610;28;20196;-52
2023/07/09 06:24:01;;;;;;;5.35;2.83;;;;;;;-144.30;24.81;80710.06;5071663;28;20203;-50
2023/07/09 06:26:28;;;;;;;3.40;3.15;;;;;;;-144.30;25.19;80789.47;5071399;28;20191;-49
2023/07/09 06:28:56;;;;;;;7.20;3.70;;;;;;;-144.30;24.88;80815.28;5071763;28;20282;-51
2023/07/09 06:31:24;;;;;;;3.92;3.45;;;;;;;-144.30;25.59;80982.06;5071550;28;20195;-51
2023/07/09 06:33:51;;;;;;;3.53;3.30;;;;;;;-144.30;25.55;81007.88;5071018;28;20238;-51
2023/07/09 06:36:19;;;;;;;6.93;3.50;;;;;;;-144.30;26.06;81043.59;5071183;28;20621;-51
2023/07/09 06:38:46;;;;;;;5.07;3.83;;;;;;;-144.30;25.96;81180.59;5071506;28;20199;-51
2023/07/09 06:41:15;;;;;;;5.47;3.88;;;;;;;-144.30;26.05;81172.66;5070840;28;20226;-50
2023/07/09 06:43:41;;;;;;;6.80;3.88;;;;;;;-144.30;26.04;81200.47;5071074;28;20212;-51
2023/07/09 06:46:12;;;;;;;4.63;4.18;;;;;;;-144.30;26.29;81214.34;5068094;28;20188;-51
2023/07/09 06:48:39;;;;;;;4.65;4.35;;;;;;;-144.30;26.42;81273.91;5070764;28;20191;-52
2023/07/09 06:51:06;;;;;;;7.03;5.38;;;;;;;-144.30;26.28;81271.94;5070788;28;20199;-52
2023/07/09 06:53:33;;;;;;;8.13;4.07;;;;;;;-144.30;26.84;81337.47;5071033;28;20188;-53
2023/07/09 06:56:00;;;;;;;6.95;3.60;;;;;;;-144.30;26.64;81404.97;5070875;28;20191;-51
2023/07/09 06:58:29;;;;;;;6.75;3.63;;;;;;;-144.30;27.41;81661.13;5071393;28;20667;-52
2023/07/09 07:00:56;;;;;;;3.72;3.42;;;;;;;-144.30;27.99;81772.34;5071202;28;20206;-52
2023/07/09 07:03:25;;;;;;;7.88;3.28;;;;;;;-144.30;28.15;81869.66;5070949;28;20226;-57
2023/07/09 07:05:54;;;;;;;5.97;3.63;;;;;;;-144.30;28.28;81970.94;5070728;28;20242;-52
2023/07/09 07:08:23;;;;;;;5.60;3.70;;;;;;;-144.30;28.08;81955.03;5070021;28;20203;-52
2023/07/09 07:10:51;;;;;;;3.80;3.50;;;;;;;-144.30;28.13;81915.31;5070158;28;20196;-52
2023/07/09 07:13:18;;;;;;;4.28;3.88;;;;;;;-144.30;28.50;81959.00;5067689;28;20194;-49
2023/07/09 07:15:50;;;;;;;3.65;3.35;;;;;;;-144.30;27.92;81746.53;5069324;28;20198;-50
2023/07/09 07:18:17;;;;;;;9.60;3.83;;;;;;;-144.30;27.90;81800.13;5070467;28;20207;-52
2023/07/09 07:20:45;;;;;;;3.63;3.33;;;;;;;-144.30;27.79;81724.69;5070562;28;20196;-51
2023/07/09 07:23:12;;;;;;;4.95;3.42;;;;;;;-144.30;27.77;81700.84;5070650;28;20660;-52
2023/07/09 07:25:39;;;;;;;6.30;3.50;;;;;;;-144.30;27.38;81557.88;5070926;28;20590;-52
2023/07/09 07:28:06;;;;;;;4.22;3.45;;;;;;;-144.30;27.33;81559.84;5070424;28;20709;-52
2023/07/09 07:30:33;;;;;;;7.93;3.58;;;;;;;-144.30;27.39;81470.50;5070482;28;20256;-53
2023/07/09 07:33:00;;;;;;;4.65;4.35;;;;;;;-144.30;26.77;81401.00;5070423;28;20192;-53
2023/07/09 07:35:27;;;;;;;4.50;4.10;;;;;;;-144.30;26.68;81470.50;5070216;28;20233;-54
2023/07/09 07:37:55;;;;;;;5.88;3.70;;;;;;;-144.30;26.51;81337.47;5070352;28;20202;-52
2023/07/09 07:40:22;;;;;;;4.45;3.67;;;;;;;-144.30;26.43;81264.00;5069701;28;20205;-52
2023/07/09 07:42:49;;;;;;;4.18;3.60;;;;;;;-144.30;26.24;81212.38;5069786;28;20617;-50
2023/07/09 07:45:16;;;;;;;7.22;3.65;;;;;;;-144.30;26.10;81323.56;5069404;28;20192;-53
2023/07/09 07:47:43;;;;;;;4.88;4.35;;;;;;;-144.30;26.33;81238.19;5069522;28;20187;-50
2023/07/09 07:50:10;;;;;;;4.97;3.95;;;;;;;-144.30;26.13;81260.03;5069417;28;20211;-49
2023/07/09 07:52:37;;;;;;;4.53;4.22;;;;;;;-144.30;25.61;81128.97;5069551;28;20202;-53
2023/07/09 07:55:07;;;;;;;5.30;4.50;;;;;;;-144.30;25.77;81136.91;5069643;28;20199;-53
2023/07/09 07:57:34;;;;;;;6.55;3.63;;;;;;;-144.30;25.50;81079.34;5069543;28;20577;-50
2023/07/09 08:00:01;;;;;;;4.03;3.38;;;;;;;-144.30;25.56;81077.34;5069471;28;20223;-48
2023/07/09 08:02:28;;;;;;;3.72;3.42;;;;;;;-144.30;25.22;81075.38;5069033;28;20259;-52
2023/07/09 08:04:55;;;;;;;3.55;3.35;;;;;;;-144.30;25.32;80982.06;5068392;28;20678;-51
2023/07/09 08:07:22;;;;;;;19.88;8.15;;;;;;;-144.30;25.30;80978.09;5068899;28;20195;-50
2023/07/09 08:09:49;;;;;;;20.92;7.78;;;;;;;-144.30;25.32;80950.28;5069256;28;20582;-49
2023/07/09 08:12:17;;;;;;;5.78;4.88;;;;;;;-144.30;25.37;81109.13;5069029;28;20191;-52
2023/07/09 08:14:46;;;;;;;4.15;3.78;;;;;;;-144.30;25.42;81071.41;5068829;28;20710;-53
2023/07/09 08:17:13;;;;;;;4.65;4.00;;;;;;;-144.30;25.31;80918.53;5066963;28;20746;-49
2023/07/09 08:19:47;;;;;;;5.13;4.63;;;;;;;-144.30;24.60;80773.59;5067488;28;20213;-52
2023/07/09 08:22:15;;;;;;;4.43;3.92;;;;;;;-144.30;24.45;80539.34;5067365;28;20196;-50
2023/07/09 08:24:43;;;;;;;7.68;6.78;;;;;;;-144.30;24.18;80455.97;5067815;28;20200;-52
2023/07/09 08:27:10;;;;;;;5.65;5.15;;;;;;;-144.30;23.99;80366.63;5067248;28;20210;-52
2023/07/09 08:29:39;;;;;;;5.43;4.90;;;;;;;-144.30;24.03;80235.63;5067520;28;20199;-56
2023/07/09 08:32:07;;;;;;;5.20;3.90;;;;;;;-144.30;23.57;80158.22;5068817;28;20632;-55
2023/07/09 08:34:34;;;;;;;4.53;4.18;;;;;;;-144.30;23.91;80235.63;5068606;28;20198;-52
2023/07/09 08:37:02;;;;;;;4.68;4.10;;;;;;;-144.30;23.60;80326.94;5069022;28;20298;-50
2023/07/09 08:39:30;;;;;;;4.47;3.85;;;;;;;-144.30;23.96;80505.59;5068984;28;20203;-52
2023/07/09 08:42:02;;;;;;;4.95;3.75;;;;;;;-144.30;24.37;80573.09;5068594;28;20191;-51
2023/07/09 08:44:55;;;;;;;3.88;3.67;;;;;;;-144.30;24.76;80791.47;5068651;28;20197;-51
2023/07/09 08:47:32;;;;;;;5.30;4.80;;;;;;;-144.30;24.59;80831.16;5068483;28;20200;-50
2023/07/09 08:50:03;;;;;;;3.95;3.60;;;;;;;-144.30;24.52;80964.19;5068771;28;20205;-50
2023/07/09 08:52:34;;;;;;;4.68;4.18;;;;;;;-144.30;24.87;81003.91;5068947;28;20191;-49
2023/07/09 08:55:05;;;;;;;4.80;4.50;;;;;;;-144.30;25.20;81007.88;5068950;28;20199;-51
2023/07/09 08:57:37;;;;;;;6.00;4.70;;;;;;;-144.30;24.69;81202.44;5068760;28;20210;-52
2023/07/09 09:00:14;;;;;;;3.85;3.55;;;;;;;-144.30;25.16;81264.00;5068927;28;20726;-52
2023/07/09 09:02:47;;;;;;;6.47;4.20;;;;;;;-144.30;25.23;81216.34;5068453;28;20221;-53
2023/07/09 09:05:19;;;;;;;6.88;4.85;;;;;;;-144.30;25.02;81196.50;5068380;28;20289;-49
2023/07/09 09:07:50;;;;;;;3.90;3.40;;;;;;;-144.30;24.66;81252.09;5068800;28;20202;-52
2023/07/09 09:10:23;;;;;;;7.22;4.68;;;;;;;-144.30;24.83;81315.63;5068251;28;20199;-49
2023/07/09 09:13:04;;;;;;;9.05;8.15;;;;;;;-144.30;25.23;81422.84;5067449;28;20829;-50
2023/07/09 09:15:33;;;;;;;4.72;4.43;;;;;;;-144.30;25.51;81381.16;5068563;28;20651;-49
2023/07/09 09:18:19;;;;;;;4.05;3.85;;;;;;;-144.30;25.63;81446.66;5068386;28;20207;-51
2023/07/09 09:20:52;;;;;;;11.10;3.83;;;;;;;-144.30;25.55;81420.84;5064477;28;20703;-50
2023/07/09 09:23:20;;;;;;;6.68;6.05;;;;;;;-144.30;25.75;81512.19;5067599;28;20434;-51
2023/07/09 09:25:53;;;;;;;5.93;4.38;;;;;;;-144.30;25.65;81460.56;5068037;28;20602;-48
2023/07/09 09:28:22;;;;;;;6.85;3.17;;;;;;;-144.30;25.88;81458.59;5068056;28;20257;-51
2023/07/09 09:30:50;;;;;;;7.15;4.47;;;;;;;-144.30;25.71;81420.84;5068331;28;20572;-51
2023/07/09 09:33:18;;;;;;;5.20;4.80;;;;;;;-144.30;25.75;81377.16;5068158;28;20582;-49
2023/07/09 09:35:48;;;;;;;3.92;3.60;;;;;;;-144.30;25.17;81430.78;5067646;28;20231;-50
2023/07/09 09:38:18;;;;;;;4.55;4.25;;;;;;;-144.30;25.56;81514.19;5068084;28;20202;-50
2023/07/09 09:40:45;;;;;;;4.38;3.97;;;;;;;-144.30;26.02;81577.72;5050554;28;20206;-49
2023/07/09 09:43:15;;;;;;;4.18;3.88;;;;;;;-144.30;25.88;81617.44;5051564;28;20657;-50
2023/07/09 09:45:45;;;;;;;5.10;3.53;;;;;;;-144.30;25.20;81494.31;5051769;28;20192;-50
2023/07/09 09:48:18;;;;;;;3.50;3.30;;;;;;;-144.30;24.84;81460.56;5061292;28;20230;-51
2023/07/09 09:50:46;;;;;;;3.55;3.35;;;;;;;-144.30;25.31;81454.63;5071075;28;20195;-52
2023/07/09 09:53:19;;;;;;;3.92;3.22;;;;;;;-144.30;24.58;81424.81;5071431;28;20195;-51
2023/07/09 09:55:47;;;;;;;4.15;3.85;;;;;;;-144.30;24.34;81391.06;5071846;28;20191;-50
2023/07/09 09:58:16;;;;;;;4.00;3.70;;;;;;;-144.30;24.47;81347.38;5071651;28;20440;-51
2023/07/09 10:00:49;;;;;;;3.95;3.35;;;;;;;-144.30;24.64;81355.34;5071613;28;20286;-52
2023/07/09 10:03:17;;;;;;;6.82;3.63;;;;;;;-144.30;24.38;81406.97;5071053;28;20241;-52
2023/07/09 10:05:49;;;;;;;3.22;3.03;;;;;;;-144.30;24.27;81327.53;5071189;28;20192;-51
2023/07/09 10:08:27;;;;;;;5.32;3.55;;;;;;;-144.30;24.48;81428.81;5071261;28;20663;-52
2023/07/09 10:11:00;;;;;;;3.63;3.30;;;;;;;-144.30;24.98;81462.56;5071581;28;20689;-51
2023/07/09 10:13:31;;;;;;;6.93;3.28;;;;;;;-144.30;25.04;81462.56;5071131;28;20198;-51
2023/07/09 10:16:06;;;;;;;3.90;3.58;;;;;;;-144.30;25.22;81462.56;5070783;28;20188;-50
2023/07/09 10:18:46;;;;;;;4.00;3.80;;;;;;;-144.30;25.34;81454.63;5071264;28;20195;-52
2023/07/09 10:21:19;;;;;;;5.28;3.75;;;;;;;-144.30;25.95;81605.53;5070591;28;20282;-51
2023/07/09 10:23:59;;;;;;;4.10;3.67;;;;;;;-144.30;25.41;81575.75;5070230;28;20215;-52
2023/07/09 10:26:33;;;;;;;4.18;3.78;;;;;;;-144.30;25.69;81669.06;5068792;28;20818;-51
2023/07/09 10:29:25;;;;;;;3.35;3.15;;;;;;;-144.30;25.25;81788.22;5068546;28;20199;-51
2023/07/09 10:32:02;;;;;;;3.95;3.53;;;;;;;-144.30;25.98;81907.38;5068070;28;20207;-54
2023/07/09 10:34:39;;;;;;;4.00;3.70;;;;;;;-144.30;26.53;81887.53;5068918;28;20184;-51
2023/07/09 10:37:22;;;;;;;4.50;4.20;;;;;;;-144.30;26.25;81907.38;5069139;28;20202;-51
2023/07/09 10:39:52;;;;;;;4.20;3.70;;;;;;;-144.30;26.16;81891.50;5069182;28;20195;-51
2023/07/09 10:42:24;;;;;;;4.03;3.72;;;;;;;-144.30;26.44;81959.00;5067385;28;20653;-51
2023/07/09 10:44:58;;;;;;;8.27;7.57;;;;;;;-144.30;26.11;81976.88;5069929;28;20220;-50
2023/07/09 10:47:31;;;;;;;9.30;8.32;;;;;;;-144.30;25.80;81881.56;5068154;28;20204;-51
2023/07/09 10:50:01;;;;;;;6.80;6.40;;;;;;;-144.30;26.26;82189.38;5069658;28;20517;-50
2023/07/09 10:52:31;;;;;;;7.22;6.70;;;;;;;-144.30;26.79;82209.25;5069763;28;20199;-51
2023/07/09 10:55:05;;;;;;;7.18;6.43;;;;;;;-144.30;26.72;82197.34;5067269;28;20279;-51
2023/07/09 10:57:45;;;;;;;4.90;4.60;;;;;;;-144.30;27.00;82229.09;5069864;28;20294;-49
2023/07/09 11:00:18;;;;;;;3.88;3.58;;;;;;;-144.30;26.91;82201.31;5069262;28;20709;-50
2023/07/09 11:02:46;;;;;;;3.80;3.42;;;;;;;-144.30;27.11;82207.25;5064588;28;20211;-51
2023/07/09 11:05:15;;;;;;;3.85;3.53;;;;;;;-144.30;26.81;82157.63;5066859;28;20200;-51
2023/07/09 11:07:49;;;;;;;3.88;3.53;;;;;;;-144.30;26.25;82221.16;5069762;28;20279;-51
2023/07/09 11:10:23;;;;;;;3.88;3.58;;;;;;;-144.30;26.55;82248.97;5067452;28;20204;-50
2023/07/09 11:12:58;;;;;;;7.00;4.00;;;;;;;-144.30;27.13;82199.31;5069748;28;20199;-50
2023/07/09 11:15:34;;;;;;;4.13;3.47;;;;;;;-144.30;27.02;82237.06;5069501;28;20195;-50
2023/07/09 11:18:01;;;;;;;3.80;3.50;;;;;;;-144.30;27.07;82217.19;5067783;28;20286;-51
2023/07/09 11:20:35;;;;;;;5.68;3.40;;;;;;;-144.30;26.79;82221.16;5069177;28;20630;-51
2023/07/09 11:23:07;;;;;;;3.28;3.08;;;;;;;-144.30;26.50;82189.38;5067741;28;20196;-51
2023/07/09 11:25:43;;;;;;;3.22;3.08;;;;;;;-144.30;26.62;82195.34;5069727;28;20192;-49
2023/07/09 11:28:10;;;;;;;3.38;3.10;;;;;;;-144.30;26.19;82189.38;5069408;28;20211;-49